Flight Track Log - Related Links

Times and Time Zones

All times are in EDT time to prevent confusion due to time zone crossing. See the ENY3141 flight status page for this flight to view local times or setup timezone preferences in your user account.

Time Position Orientation Groundspeed Altitude Reporting Facility
EDT Latitude Longitude Course Direction KTS MPH feet Rate Location/Type
Tue 06:14:31 AM 40.9308 -85.2611 310° West 192 221 3,900  Level Chicago Center
Tue 06:15:32 AM 40.9789 -85.3358 310° West 238 274 6,500 2,231 Climbing Chicago Center
Tue 06:16:32 AM 41.0419 -85.3889 328° Northwest 263 303 8,400 1,884 Climbing Chicago Center
Tue 06:17:33 AM 41.0792 -85.4772 299° West 282 325 10,300 1,339 Climbing Chicago Center
Tue 06:18:33 AM 41.1064 -85.5869 288° West 309 356 11,100 744 Climbing Chicago Center
Tue 06:19:34 AM 41.1392 -85.7114 289° West 349 402 11,800 744 Climbing Chicago Center
Tue 06:20:34 AM 41.1744 -85.8425 290° West 370 426 12,600 793 Climbing Chicago Center
Tue 06:21:35 AM 41.2100 -85.9764 289° West 380 437 13,400 885 Climbing Chicago Center
Tue 06:22:36 AM 41.2458 -86.1103 290° West 381 438 14,400 992 Climbing Chicago Center
Tue 06:23:36 AM 41.2803 -86.2417 289° West 379 436 15,400 793 Climbing Chicago Center
Tue 06:24:37 AM 41.3150 -86.3764 289° West 380 437 16,000 295 Climbing Chicago Center
Tue 06:25:38 AM 41.3508 -86.5150 289° West 394 453 16,000  Level Chicago Center
Tue 06:26:38 AM 41.3869 -86.6550 289° West 399 459 16,000 -744 Level Chicago Center
Tue 06:27:39 AM 41.4272 -86.8028 290° West 402 463 14,500 -1,587 Descending Chicago Center
Tue 06:28:39 AM 41.4597 -86.9333 288° West 375 432 12,800 -1,587 Descending Chicago Center
Tue 06:29:40 AM 41.4931 -87.0625 289° West 372 428 11,300 -885 Descending Chicago Center
Tue 06:30:41 AM 41.5297 -87.1806 293° West 341 392 11,000 -397 Descending Chicago Center
Tue 06:31:41 AM 41.5850 -87.2678 310° West 288 331 10,500 -1,190 Descending Chicago Center
Tue 06:32:42 AM 41.6342 -87.3478 309° West 283 326 8,600 -1,721 Descending Chicago Center
Tue 06:33:43 AM 41.6831 -87.4261 310° West 280 322 7,000 -787 Descending Chicago Center
Tue 06:34:44 AM 41.7569 -87.4533 345° North 281 323 7,000  Level Chicago Center
Tue 06:35:44 AM 41.8339 -87.4733 349° North 281 323 7,000 -645 Level Chicago Center
Tue 06:36:45 AM 41.9114 -87.5053 343° North 277 319 5,700 -1,339 Descending Chicago Center
Tue 06:37:45 AM 41.9467 -87.5897 299° West 264 304 4,300 -1,041 Descending Chicago Center
Tue 06:38:46 AM 41.9658 -87.6769 286° West 255 293 3,600 -934 Descending Chicago Center
Tue 06:39:47 AM 41.9661 -87.7650 270° West 242 278 2,400 -1,041 Descending Chicago Center
Tue 06:40:47 AM 41.9658 -87.8314 270° West 173 199 1,500 -793 Descending Chicago Center
Tue 06:41:48 AM 41.9656 -87.8814 270° West 138 159 800 -689 Descending Chicago Center

Login

Don't have an account? Register now (free) for customized features, flight alerts, and more!